createdAt,value
2017-09-05T00:01:01.986Z,4.20
2017-09-05T00:03:33.439Z,3.87
2017-09-05T00:06:04.502Z,4.03
2017-09-05T00:08:37.097Z,4.13
2017-09-05T00:11:27.409Z,4.10
2017-09-05T00:14:02.859Z,4.33
2017-09-05T00:16:40.496Z,4.20
2017-09-05T00:19:15.965Z,3.93
2017-09-05T00:21:47.486Z,4.80
2017-09-05T00:24:18.671Z,3.60
2017-09-05T00:26:49.506Z,4.10
2017-09-05T00:29:20.346Z,4.33
2017-09-05T00:31:50.942Z,3.67
2017-09-05T00:34:21.431Z,4.60
2017-09-05T00:36:53.091Z,3.70
2017-09-05T00:39:23.648Z,3.73
2017-09-05T00:41:54.342Z,3.40
2017-09-05T00:44:25.867Z,4.17
2017-09-05T00:46:56.435Z,3.23
2017-09-05T00:49:27.402Z,3.00
2017-09-05T00:51:57.963Z,2.80
2017-09-05T00:54:28.965Z,2.40
2017-09-05T00:56:59.590Z,2.30
2017-09-05T00:59:30.149Z,3.00
2017-09-05T01:02:00.709Z,3.07
2017-09-05T01:04:31.306Z,2.60
2017-09-05T01:07:02.206Z,2.80
2017-09-05T01:09:32.770Z,3.40
2017-09-05T01:12:03.378Z,2.43
2017-09-05T01:14:35.238Z,1.90
2017-09-05T01:17:05.812Z,3.23
2017-09-05T01:19:36.695Z,2.40
2017-09-05T01:22:07.259Z,2.90
2017-09-05T01:24:38.150Z,2.30
2017-09-05T01:27:10.036Z,3.07
2017-09-05T01:29:40.566Z,2.77
2017-09-05T01:32:11.138Z,3.40
2017-09-05T01:34:41.690Z,3.17
2017-09-05T01:37:12.673Z,3.40
2017-09-05T01:39:43.379Z,2.70
2017-09-05T01:42:14.814Z,2.60
2017-09-05T01:44:45.376Z,3.13
2017-09-05T01:47:16.759Z,3.33
2017-09-05T01:49:47.322Z,3.00
2017-09-05T01:52:18.814Z,2.80
2017-09-05T01:54:51.459Z,3.20
2017-09-05T01:57:23.894Z,2.37
2017-09-05T01:59:54.779Z,3.40
2017-09-05T02:02:25.651Z,3.50
2017-09-05T02:04:56.187Z,3.33
2017-09-05T02:07:28.093Z,3.57
2017-09-05T02:09:58.657Z,3.63
2017-09-05T02:12:29.597Z,4.07
2017-09-05T02:15:00.126Z,4.30
2017-09-05T02:17:31.506Z,5.00
2017-09-05T02:20:02.014Z,5.43
2017-09-05T02:22:33.523Z,5.50
2017-09-05T02:25:05.500Z,5.57
2017-09-05T02:27:36.170Z,6.47
2017-09-05T02:30:08.077Z,7.00
2017-09-05T02:32:38.705Z,7.30
2017-09-05T02:35:09.318Z,6.80
2017-09-05T02:37:40.071Z,8.00
2017-09-05T02:40:10.659Z,6.30
2017-09-05T02:42:41.590Z,5.83
2017-09-05T02:45:13.294Z,6.17
2017-09-05T02:47:44.245Z,6.43
2017-09-05T02:50:15.121Z,6.57
2017-09-05T02:52:46.030Z,6.33
2017-09-05T02:55:16.979Z,5.97
2017-09-05T02:57:47.902Z,5.97
2017-09-05T03:00:34.142Z,6.30
2017-09-05T03:03:04.658Z,5.83
2017-09-05T03:05:35.186Z,6.97
2017-09-05T03:08:06.210Z,4.90
2017-09-05T03:10:36.746Z,4.70
2017-09-05T03:13:07.341Z,5.30
2017-09-05T03:15:37.887Z,4.80
2017-09-05T03:18:08.496Z,5.20
2017-09-05T03:20:39.090Z,5.10
2017-09-05T03:23:09.703Z,8.70
2017-09-05T03:25:40.767Z,8.30
2017-09-05T03:28:11.330Z,8.83
2017-09-05T03:30:41.911Z,11.07
2017-09-05T03:33:12.514Z,9.83
2017-09-05T03:35:43.074Z,10.07
2017-09-05T03:38:14.855Z,11.10
2017-09-05T03:40:45.413Z,11.10
2017-09-05T03:43:16.475Z,10.20
2017-09-05T03:45:46.996Z,11.50
2017-09-05T03:48:18.345Z,11.60
2017-09-05T03:50:48.889Z,12.20
2017-09-05T03:53:19.403Z,11.03
2017-09-05T03:55:50.183Z,10.90
2017-09-05T03:58:21.619Z,10.17
2017-09-05T04:00:52.217Z,11.00
2017-09-05T04:03:23.074Z,10.50
2017-09-05T04:05:53.626Z,11.10
2017-09-05T04:08:25.495Z,10.80
2017-09-05T04:10:56.057Z,10.80
2017-09-05T04:13:27.073Z,13.50
2017-09-05T04:15:57.713Z,12.13
2017-09-05T04:18:28.262Z,13.20
2017-09-05T04:20:58.862Z,12.77
2017-09-05T04:23:29.456Z,11.70
2017-09-05T04:26:00.372Z,9.43
2017-09-05T04:28:30.970Z,10.70
2017-09-05T04:31:01.970Z,10.90
2017-09-05T04:33:33.361Z,10.43
2017-09-05T04:36:03.917Z,10.30
2017-09-05T04:38:34.511Z,9.70
2017-09-05T04:41:05.106Z,10.10
2017-09-05T04:43:35.923Z,9.77
2017-09-05T04:46:06.466Z,10.50
2017-09-05T04:48:37.043Z,11.30
2017-09-05T04:51:08.261Z,11.30
2017-09-05T04:53:38.770Z,12.33
2017-09-05T04:56:10.503Z,10.90
2017-09-05T04:58:41.073Z,11.57
2017-09-05T05:01:12.005Z,9.33
2017-09-05T05:03:42.594Z,8.90
2017-09-05T05:06:28.767Z,8.60
2017-09-05T05:08:59.727Z,8.07
2017-09-05T05:11:30.303Z,7.90
2017-09-05T05:14:01.227Z,8.50
2017-09-05T05:16:37.051Z,6.70
2017-09-05T05:19:08.691Z,6.20
2017-09-05T05:21:39.190Z,7.40
2017-09-05T05:24:09.722Z,7.97
2017-09-05T05:26:40.454Z,8.03
2017-09-05T05:29:10.977Z,6.07
2017-09-05T05:31:41.484Z,5.80
2017-09-05T05:34:12.063Z,6.87
2017-09-05T05:36:42.587Z,6.90
2017-09-05T05:39:13.486Z,7.10
2017-09-05T05:41:44.034Z,7.63
2017-09-05T05:44:15.025Z,6.70
2017-09-05T05:46:45.522Z,6.20
2017-09-05T05:49:16.117Z,7.30
2017-09-05T05:51:46.666Z,5.90
2017-09-05T05:54:17.166Z,7.23
2017-09-05T05:56:48.106Z,7.10
2017-09-05T05:59:18.667Z,6.00
2017-09-05T06:01:49.170Z,7.43
2017-09-05T06:04:19.727Z,5.60
2017-09-05T06:06:50.278Z,7.00
2017-09-05T06:09:20.851Z,6.40
2017-09-05T06:11:51.394Z,7.33
2017-09-05T06:14:22.190Z,7.90
2017-09-05T06:16:52.705Z,7.20
2017-09-05T06:19:23.307Z,7.13
2017-09-05T06:21:53.842Z,6.80
2017-09-05T06:24:24.398Z,7.10
2017-09-05T06:26:55.348Z,6.67
2017-09-05T06:29:25.916Z,7.30
2017-09-05T06:31:56.938Z,6.07
2017-09-05T06:34:27.474Z,7.30
2017-09-05T06:36:58.080Z,6.40
2017-09-05T06:39:28.650Z,7.60
2017-09-05T06:41:59.236Z,7.40
2017-09-05T06:44:30.198Z,7.27
2017-09-05T06:47:00.757Z,7.60
2017-09-05T06:49:31.286Z,7.30
2017-09-05T06:52:01.790Z,7.00
2017-09-05T06:54:33.934Z,6.83
2017-09-05T06:57:04.651Z,7.33
2017-09-05T06:59:35.178Z,7.07
2017-09-05T07:02:06.023Z,6.33
2017-09-05T07:04:36.538Z,5.83
2017-09-05T07:07:07.126Z,5.30
2017-09-05T07:09:37.716Z,5.50
2017-09-05T07:12:08.260Z,5.80
2017-09-05T07:14:39.218Z,6.13
2017-09-05T07:17:09.797Z,5.73
2017-09-05T07:19:40.789Z,6.53
2017-09-05T07:22:11.341Z,5.80
2017-09-05T07:24:41.863Z,4.40
2017-09-05T07:27:12.413Z,4.10
2017-09-05T07:29:42.934Z,4.63
2017-09-05T07:32:13.946Z,5.20
2017-09-05T07:34:44.507Z,4.20
2017-09-05T07:37:15.090Z,4.87
2017-09-05T07:39:45.623Z,4.70
2017-09-05T07:42:16.180Z,4.70
2017-09-05T07:44:47.190Z,4.53
2017-09-05T07:47:17.849Z,4.27
2017-09-05T07:49:48.859Z,4.00
2017-09-05T07:52:19.473Z,5.03
2017-09-05T07:54:50.011Z,4.30
2017-09-05T07:57:20.587Z,4.37
2017-09-05T07:59:51.184Z,4.03
2017-09-05T08:02:22.122Z,3.63
2017-09-05T08:04:52.663Z,3.30
2017-09-05T08:07:23.249Z,3.57
2017-09-05T08:09:53.830Z,3.27
2017-09-05T08:12:24.462Z,3.00
2017-09-05T08:14:55.311Z,3.13
2017-09-05T08:17:25.984Z,3.20
2017-09-05T08:19:56.986Z,2.70
2017-09-05T08:22:27.506Z,2.50
2017-09-05T08:24:58.114Z,3.13
2017-09-05T08:27:28.683Z,3.60
2017-09-05T08:29:59.329Z,2.93
2017-09-05T08:32:30.214Z,2.73
2017-09-05T08:35:00.821Z,3.20
2017-09-05T08:37:32.422Z,5.27
2017-09-05T08:40:03.054Z,5.07
2017-09-05T08:42:33.670Z,4.30
2017-09-05T08:45:04.292Z,4.10
2017-09-05T08:47:34.897Z,3.73
2017-09-05T08:50:05.830Z,3.00
2017-09-05T08:52:36.420Z,3.60
2017-09-05T08:55:07.122Z,3.53
2017-09-05T08:57:37.667Z,3.47
2017-09-05T09:00:08.219Z,3.83
2017-09-05T09:02:39.119Z,4.10
2017-09-05T09:05:09.994Z,3.23
2017-09-05T09:07:40.887Z,2.80
2017-09-05T09:10:11.517Z,3.47
2017-09-05T09:12:42.078Z,2.57
2017-09-05T09:15:12.629Z,3.33
2017-09-05T09:17:43.248Z,2.97
2017-09-05T09:20:14.217Z,3.77
2017-09-05T09:22:44.773Z,3.60
2017-09-05T09:25:15.370Z,3.27
2017-09-05T09:27:45.952Z,4.00
2017-09-05T09:30:16.513Z,3.60
2017-09-05T09:32:47.413Z,4.47
2017-09-05T09:35:17.942Z,3.90
2017-09-05T09:37:48.943Z,3.70
2017-09-05T09:40:19.510Z,4.00
2017-09-05T09:42:50.058Z,4.10
2017-09-05T09:45:20.652Z,4.17
2017-09-05T09:47:51.205Z,3.90
2017-09-05T09:50:21.942Z,4.40
2017-09-05T09:52:52.503Z,4.03
2017-09-05T09:55:23.306Z,3.67
2017-09-05T09:57:53.905Z,4.90
2017-09-05T10:00:25.224Z,4.60
2017-09-05T10:02:55.734Z,4.60
2017-09-05T10:05:26.306Z,4.67
2017-09-05T10:07:58.803Z,4.80
2017-09-05T10:10:29.364Z,4.47
2017-09-05T10:12:59.999Z,5.53
2017-09-05T10:15:30.572Z,5.67
2017-09-05T10:18:01.186Z,6.40
2017-09-05T10:20:32.184Z,6.57
2017-09-05T10:23:02.716Z,5.70
2017-09-05T10:25:33.608Z,5.67
2017-09-05T10:28:04.194Z,6.17
2017-09-05T10:30:34.758Z,5.70
2017-09-05T10:33:05.358Z,5.50
2017-09-05T10:35:35.957Z,6.30
2017-09-05T10:38:06.994Z,5.60
2017-09-05T10:40:37.586Z,5.43
2017-09-05T10:43:08.175Z,6.00
2017-09-05T10:45:38.693Z,5.90
2017-09-05T10:48:09.274Z,4.90
2017-09-05T10:50:40.129Z,5.83
2017-09-05T10:53:10.703Z,5.03
2017-09-05T10:55:42.272Z,6.00
2017-09-05T10:58:12.834Z,5.70
2017-09-05T11:00:43.455Z,5.20
2017-09-05T11:03:14.049Z,11.47
2017-09-05T11:05:44.678Z,13.90
2017-09-05T11:08:15.428Z,11.50
2017-09-05T11:10:46.001Z,9.73
2017-09-05T11:13:16.752Z,8.83
2017-09-05T11:15:47.268Z,9.53
2017-09-05T11:18:18.630Z,11.53
2017-09-05T11:20:49.224Z,12.83
2017-09-05T11:23:19.790Z,12.80
2017-09-05T11:25:50.729Z,13.40
2017-09-05T11:28:21.294Z,9.53
2017-09-05T11:30:51.845Z,7.60
2017-09-05T11:33:22.463Z,6.70
2017-09-05T11:35:53.009Z,6.57
2017-09-05T11:38:23.723Z,5.43
2017-09-05T11:40:54.335Z,5.10
2017-09-05T11:43:25.283Z,5.07
2017-09-05T11:45:55.890Z,3.93
2017-09-05T11:48:26.448Z,3.67
2017-09-05T11:50:57.084Z,3.80
2017-09-05T11:53:27.674Z,2.97
2017-09-05T11:55:58.326Z,6.70
2017-09-05T11:58:28.932Z,4.60
2017-09-05T12:00:59.531Z,8.27
2017-09-05T12:03:30.087Z,9.50
2017-09-05T12:06:00.657Z,8.70
2017-09-05T12:08:31.237Z,8.80
2017-09-05T12:11:01.832Z,8.30
2017-09-05T12:13:32.703Z,8.40
2017-09-05T12:16:03.278Z,7.67
2017-09-05T12:18:33.866Z,8.00
2017-09-05T12:21:04.431Z,8.43
2017-09-05T12:23:35.029Z,9.27
2017-09-05T12:26:05.986Z,9.17
2017-09-05T12:28:36.597Z,9.07
2017-09-05T12:31:07.713Z,8.10
2017-09-05T12:33:38.270Z,9.17
2017-09-05T12:36:08.865Z,8.63
2017-09-05T12:38:39.429Z,8.07
2017-09-05T12:41:10.041Z,7.60
2017-09-05T12:43:40.909Z,8.80
2017-09-05T12:46:11.505Z,8.73
2017-09-05T12:48:42.054Z,8.43
2017-09-05T12:51:12.616Z,8.30
2017-09-05T12:53:43.131Z,9.00
2017-09-05T12:56:14.931Z,9.97
2017-09-05T12:58:45.460Z,9.43
2017-09-05T13:01:16.513Z,9.47
2017-09-05T13:03:47.107Z,9.80
2017-09-05T13:06:17.651Z,8.77
2017-09-05T13:08:48.175Z,10.10
2017-09-05T13:11:18.778Z,9.90
2017-09-05T13:13:50.519Z,9.37
2017-09-05T13:16:21.067Z,10.03
2017-09-05T13:18:51.682Z,10.40
2017-09-05T13:21:22.203Z,11.57
2017-09-05T13:23:53.571Z,10.00
2017-09-05T13:26:24.137Z,9.40
2017-09-05T13:28:54.737Z,9.10
2017-09-05T13:31:25.678Z,9.90
2017-09-05T13:33:56.291Z,9.77
2017-09-05T13:36:26.895Z,10.67
2017-09-05T13:38:57.466Z,10.93
2017-09-05T13:41:28.057Z,10.50
2017-09-05T13:43:59.035Z,11.17
2017-09-05T13:46:29.669Z,10.60
2017-09-05T13:49:00.623Z,9.30
2017-09-05T13:51:31.203Z,10.43
2017-09-05T13:54:02.501Z,11.33
2017-09-05T13:56:33.114Z,12.27
2017-09-05T13:59:03.773Z,13.20
2017-09-05T14:01:34.807Z,13.40
2017-09-05T14:04:05.326Z,12.90
2017-09-05T14:06:35.886Z,14.40
2017-09-05T14:09:06.691Z,13.40
2017-09-05T14:11:37.245Z,12.47
2017-09-05T14:14:08.279Z,13.43
2017-09-05T14:16:40.110Z,12.40
2017-09-05T14:19:10.991Z,11.60
2017-09-05T14:21:41.577Z,11.97
2017-09-05T14:24:12.209Z,13.60
2017-09-05T14:26:43.499Z,14.27
2017-09-05T14:29:15.200Z,13.87
2017-09-05T14:31:45.742Z,14.47
2017-09-05T14:34:16.243Z,14.20
2017-09-05T14:36:47.943Z,15.67
2017-09-05T14:39:18.509Z,17.57
2017-09-05T14:41:49.117Z,18.00
2017-09-05T14:44:20.030Z,19.47
2017-09-05T14:46:50.589Z,17.90
2017-09-05T14:49:21.562Z,20.13
2017-09-05T14:51:52.890Z,20.23
2017-09-05T14:54:23.421Z,19.50
2017-09-05T14:56:53.961Z,19.83
2017-09-05T14:59:24.579Z,21.67
2017-09-05T15:01:55.303Z,19.90
2017-09-05T15:04:25.823Z,19.73
2017-09-05T15:06:56.438Z,19.57
2017-09-05T15:09:27.045Z,19.00
2017-09-05T15:11:58.614Z,20.30
2017-09-05T15:14:29.154Z,18.80
2017-09-05T15:16:59.701Z,20.07
2017-09-05T15:19:30.333Z,20.57
2017-09-05T15:22:00.924Z,19.57
2017-09-05T15:24:31.478Z,19.00
2017-09-05T15:27:02.087Z,18.33
2017-09-05T15:29:32.590Z,20.17
2017-09-05T15:32:03.311Z,21.67
2017-09-05T15:34:33.918Z,20.33
2017-09-05T15:37:05.652Z,21.43
2017-09-05T15:39:36.187Z,22.03
2017-09-05T15:42:06.754Z,24.27
2017-09-05T15:44:37.339Z,24.10
2017-09-05T15:47:07.930Z,25.20
2017-09-05T15:49:38.802Z,24.23
2017-09-05T15:52:09.391Z,24.10
2017-09-05T15:54:40.752Z,25.40
2017-09-05T15:57:11.294Z,25.63
2017-09-05T15:59:41.847Z,27.10
2017-09-05T16:02:12.778Z,25.07
2017-09-05T16:04:43.302Z,27.93
2017-09-05T16:07:14.242Z,27.90
2017-09-05T16:09:44.810Z,25.57
2017-09-05T16:12:15.419Z,25.87
2017-09-05T16:14:45.990Z,26.10
2017-09-05T16:17:17.747Z,26.53
2017-09-05T16:19:48.632Z,26.10
2017-09-05T16:22:19.249Z,25.63
2017-09-05T16:24:49.750Z,27.50
2017-09-05T16:27:20.384Z,28.37
2017-09-05T16:29:50.954Z,28.97
2017-09-05T16:32:21.479Z,25.40
2017-09-05T16:34:52.031Z,26.23
2017-09-05T16:37:22.914Z,24.30
2017-09-05T16:39:53.510Z,23.27
2017-09-05T16:42:24.091Z,23.47
2017-09-05T16:44:54.657Z,23.43
2017-09-05T16:47:25.231Z,21.20
2017-09-05T16:49:56.224Z,22.67
2017-09-05T16:52:26.872Z,23.10
2017-09-05T16:54:57.758Z,23.03
2017-09-05T16:57:28.324Z,22.07
2017-09-05T16:59:58.983Z,21.27
2017-09-05T17:02:29.675Z,21.10
2017-09-05T17:05:00.246Z,20.97
2017-09-05T17:07:30.952Z,20.30
2017-09-05T17:10:01.530Z,22.10
2017-09-05T17:12:33.102Z,20.30
2017-09-05T17:15:03.658Z,21.33
2017-09-05T17:17:34.259Z,21.47
2017-09-05T17:20:05.227Z,19.20
2017-09-05T17:22:35.830Z,18.50
2017-09-05T17:25:07.494Z,20.00
2017-09-05T17:27:38.093Z,19.00
2017-09-05T17:30:08.689Z,19.37
2017-09-05T17:32:39.292Z,18.13
2017-09-05T17:35:09.874Z,19.30
2017-09-05T17:37:40.827Z,20.60
2017-09-05T17:40:11.354Z,19.37
2017-09-05T17:42:41.950Z,22.03
2017-09-05T17:45:12.519Z,18.50
2017-09-05T17:47:43.086Z,19.60
2017-09-05T17:50:13.694Z,20.70
2017-09-05T17:52:44.290Z,19.40
2017-09-05T17:55:15.158Z,19.53
2017-09-05T17:57:45.719Z,20.20
2017-09-05T18:00:16.328Z,19.80
2017-09-05T18:02:46.893Z,20.30
2017-09-05T18:05:17.446Z,19.40
2017-09-05T18:07:48.401Z,21.13
2017-09-05T18:10:18.927Z,20.73
2017-09-05T18:12:50.091Z,21.60
2017-09-05T18:15:20.640Z,20.20
2017-09-05T18:17:51.202Z,19.80
2017-09-05T18:20:21.782Z,19.43
2017-09-05T18:22:52.350Z,18.77
2017-09-05T18:25:23.230Z,19.27
2017-09-05T18:27:54.602Z,18.50
2017-09-05T18:30:25.166Z,19.60
2017-09-05T18:32:55.764Z,18.43
2017-09-05T18:35:26.332Z,19.23
2017-09-05T18:37:57.358Z,20.10
2017-09-05T18:40:27.906Z,20.30
2017-09-05T18:42:58.729Z,18.73
2017-09-05T18:45:29.339Z,19.00
2017-09-05T18:47:59.939Z,18.07
2017-09-05T18:50:30.450Z,19.30
2017-09-05T18:53:01.066Z,18.93
2017-09-05T18:55:31.884Z,20.90
2017-09-05T18:58:02.496Z,19.93
2017-09-05T19:00:33.064Z,19.37
2017-09-05T19:03:03.685Z,20.10
2017-09-05T19:05:34.282Z,20.77
2017-09-05T19:08:04.842Z,18.17
2017-09-05T19:10:35.396Z,20.27
2017-09-05T19:13:06.410Z,20.40
2017-09-05T19:15:36.935Z,19.70
2017-09-05T19:18:07.530Z,19.67
2017-09-05T19:20:38.137Z,19.07
2017-09-05T19:23:09.506Z,19.27
2017-09-05T19:25:40.153Z,20.50
2017-09-05T19:28:10.735Z,19.87
2017-09-05T19:30:41.433Z,19.97
2017-09-05T19:33:11.971Z,21.93
2017-09-05T19:35:42.527Z,22.70
2017-09-05T19:38:13.157Z,22.87
2017-09-05T19:40:43.751Z,22.70
2017-09-05T19:43:14.767Z,23.40
2017-09-05T19:45:45.360Z,20.97
2017-09-05T19:48:15.926Z,22.10
2017-09-05T19:50:46.486Z,23.03
2017-09-05T19:53:17.052Z,21.70
2017-09-05T19:55:48.067Z,24.60
2017-09-05T19:58:18.667Z,21.87
2017-09-05T20:00:49.571Z,22.40
2017-09-05T20:03:20.384Z,24.00
2017-09-05T20:05:50.918Z,24.80
2017-09-05T20:10:57.350Z,28.07
2017-09-05T20:13:28.138Z,27.67
2017-09-05T20:15:58.654Z,27.37
2017-09-05T20:18:29.235Z,25.07
2017-09-05T20:20:59.773Z,26.30
2017-09-05T20:23:30.371Z,27.13
2017-09-05T20:26:01.360Z,27.50
2017-09-05T20:28:31.895Z,26.53
2017-09-05T20:31:02.911Z,26.70
2017-09-05T20:33:33.479Z,25.27
2017-09-05T20:36:04.050Z,26.07
2017-09-05T20:38:34.595Z,26.50
2017-09-05T20:41:05.149Z,25.23
2017-09-05T20:43:36.058Z,26.00
2017-09-05T20:46:06.654Z,25.93
2017-09-05T20:48:37.646Z,25.40
2017-09-05T20:51:08.231Z,23.20
2017-09-05T20:53:38.773Z,23.10
2017-09-05T20:56:10.913Z,23.27
2017-09-05T20:58:41.543Z,25.60
2017-09-05T21:01:12.541Z,24.17
2017-09-05T21:03:43.090Z,23.33
2017-09-05T21:06:13.620Z,23.80
2017-09-05T21:08:44.211Z,25.07
2017-09-05T21:11:14.715Z,23.97
2017-09-05T21:13:46.406Z,23.47
2017-09-05T21:16:16.994Z,22.50
2017-09-05T21:18:47.878Z,22.97
2017-09-05T21:21:18.476Z,21.37
2017-09-05T21:23:49.055Z,20.33
2017-09-05T21:26:19.638Z,23.27
2017-09-05T21:28:50.142Z,19.53
2017-09-05T21:31:21.124Z,21.67
2017-09-05T21:33:51.722Z,21.03
2017-09-05T21:36:22.568Z,22.17
2017-09-05T21:38:53.157Z,21.03
2017-09-05T21:41:23.751Z,20.87
2017-09-05T21:43:54.672Z,22.30
2017-09-05T21:46:25.226Z,21.50
2017-09-05T21:48:56.158Z,20.30
2017-09-05T21:51:26.730Z,22.33
2017-09-05T21:53:57.274Z,21.73
2017-09-05T21:59:56.998Z,21.83
2017-09-05T22:02:27.526Z,20.80
2017-09-05T22:04:58.147Z,21.80
2017-09-05T22:07:28.621Z,22.67
2017-09-05T22:09:59.132Z,22.33
2017-09-05T22:12:29.755Z,22.20
2017-09-05T22:15:05.514Z,22.83
2017-09-05T22:17:36.434Z,21.90
2017-09-05T22:20:11.920Z,21.37
2017-09-05T22:22:51.790Z,23.30
2017-09-05T22:25:27.219Z,21.97
2017-09-05T22:28:02.940Z,21.83
2017-09-05T22:30:33.511Z,19.67
2017-09-05T22:33:04.128Z,19.40
2017-09-05T22:35:34.687Z,21.37
2017-09-05T22:38:05.239Z,19.77
2017-09-05T22:40:36.356Z,22.93
2017-09-05T22:43:06.934Z,20.43
2017-09-05T22:45:37.589Z,19.43
2017-09-05T22:48:08.119Z,19.97
2017-09-05T22:50:38.660Z,20.60
2017-09-05T22:53:09.209Z,19.23
2017-09-05T22:55:39.807Z,20.90
2017-09-05T22:58:10.833Z,20.00
2017-09-05T23:00:41.393Z,19.13
2017-09-05T23:03:12.042Z,18.20
2017-09-05T23:05:42.609Z,19.90
2017-09-05T23:08:13.137Z,19.60
2017-09-05T23:10:44.635Z,19.13
2017-09-05T23:13:15.401Z,19.33
2017-09-05T23:15:46.291Z,18.57
2017-09-05T23:18:17.916Z,18.23
2017-09-05T23:20:48.566Z,20.27
2017-09-05T23:23:19.096Z,21.23
2017-09-05T23:25:49.702Z,21.57
2017-09-05T23:28:20.279Z,22.63
2017-09-05T23:30:50.932Z,20.53
2017-09-05T23:33:21.484Z,22.40
2017-09-05T23:35:51.986Z,21.20
2017-09-05T23:38:22.469Z,19.97
2017-09-05T23:40:53.059Z,20.50
2017-09-05T23:43:23.579Z,20.83
2017-09-05T23:45:54.319Z,22.00
2017-09-05T23:48:24.792Z,20.00
2017-09-05T23:50:55.377Z,20.60
2017-09-05T23:53:25.964Z,19.77
2017-09-05T23:55:56.469Z,19.47
2017-09-05T23:58:27.515Z,19.20
